sensor_id;sensor_type;location;lat;lon;timestamp;P1;durP1;ratioP1;P2;durP2;ratioP2
70605;SDS011;58173;52.500;5.494;2024-03-17T00:00:17;11.70;;;3.90;;
70605;SDS011;58173;52.500;5.494;2024-03-17T00:02:44;9.30;;;3.67;;
70605;SDS011;58173;52.500;5.494;2024-03-17T00:05:13;9.95;;;4.32;;
70605;SDS011;58173;52.500;5.494;2024-03-17T00:07:40;13.55;;;4.20;;
70605;SDS011;58173;52.500;5.494;2024-03-17T00:10:06;11.15;;;4.30;;
70605;SDS011;58173;52.500;5.494;2024-03-17T00:12:33;10.30;;;4.25;;
70605;SDS011;58173;52.500;5.494;2024-03-17T00:15:00;11.10;;;4.38;;
70605;SDS011;58173;52.500;5.494;2024-03-17T00:17:26;13.70;;;4.47;;
70605;SDS011;58173;52.500;5.494;2024-03-17T00:19:52;12.77;;;5.00;;
70605;SDS011;58173;52.500;5.494;2024-03-17T00:22:18;12.15;;;4.63;;
70605;SDS011;58173;52.500;5.494;2024-03-17T00:24:45;16.20;;;4.85;;
70605;SDS011;58173;52.500;5.494;2024-03-17T00:27:11;13.95;;;5.07;;
70605;SDS011;58173;52.500;5.494;2024-03-17T00:29:38;14.05;;;5.30;;
70605;SDS011;58173;52.500;5.494;2024-03-17T00:32:05;11.88;;;4.80;;
70605;SDS011;58173;52.500;5.494;2024-03-17T00:34:31;14.13;;;4.88;;
70605;SDS011;58173;52.500;5.494;2024-03-17T00:36:58;13.82;;;5.03;;
70605;SDS011;58173;52.500;5.494;2024-03-17T00:39:28;15.02;;;5.07;;
70605;SDS011;58173;52.500;5.494;2024-03-17T00:41:54;14.00;;;5.18;;
70605;SDS011;58173;52.500;5.494;2024-03-17T00:44:20;12.35;;;4.78;;
70605;SDS011;58173;52.500;5.494;2024-03-17T00:46:47;13.27;;;4.78;;
70605;SDS011;58173;52.500;5.494;2024-03-17T00:49:13;12.60;;;4.55;;
70605;SDS011;58173;52.500;5.494;2024-03-17T00:51:39;13.05;;;4.65;;
70605;SDS011;58173;52.500;5.494;2024-03-17T00:54:06;11.60;;;4.63;;
70605;SDS011;58173;52.500;5.494;2024-03-17T00:56:32;12.55;;;3.85;;
70605;SDS011;58173;52.500;5.494;2024-03-17T00:58:58;11.23;;;4.32;;
70605;SDS011;58173;52.500;5.494;2024-03-17T01:01:24;11.35;;;4.20;;
70605;SDS011;58173;52.500;5.494;2024-03-17T01:03:51;10.73;;;4.13;;
70605;SDS011;58173;52.500;5.494;2024-03-17T01:06:17;10.63;;;3.85;;
70605;SDS011;58173;52.500;5.494;2024-03-17T01:08:43;11.55;;;3.90;;
70605;SDS011;58173;52.500;5.494;2024-03-17T01:11:16;11.45;;;3.63;;
70605;SDS011;58173;52.500;5.494;2024-03-17T01:13:44;11.80;;;3.70;;
70605;SDS011;58173;52.500;5.494;2024-03-17T01:16:12;10.25;;;3.85;;
70605;SDS011;58173;52.500;5.494;2024-03-17T01:18:38;9.07;;;3.15;;
70605;SDS011;58173;52.500;5.494;2024-03-17T01:21:05;9.27;;;3.30;;
70605;SDS011;58173;52.500;5.494;2024-03-17T01:23:32;9.73;;;3.13;;
70605;SDS011;58173;52.500;5.494;2024-03-17T01:25:58;8.95;;;2.72;;
70605;SDS011;58173;52.500;5.494;2024-03-17T01:28:24;9.65;;;2.88;;
70605;SDS011;58173;52.500;5.494;2024-03-17T01:30:52;7.57;;;2.58;;
70605;SDS011;58173;52.500;5.494;2024-03-17T01:33:18;11.20;;;3.05;;
70605;SDS011;58173;52.500;5.494;2024-03-17T01:35:50;10.85;;;2.85;;
70605;SDS011;58173;52.500;5.494;2024-03-17T01:38:16;6.78;;;2.45;;
70605;SDS011;58173;52.500;5.494;2024-03-17T01:40:42;10.05;;;2.55;;
70605;SDS011;58173;52.500;5.494;2024-03-17T01:43:09;10.52;;;2.47;;
70605;SDS011;58173;52.500;5.494;2024-03-17T01:45:37;7.72;;;2.30;;
70605;SDS011;58173;52.500;5.494;2024-03-17T01:48:03;6.68;;;2.08;;
70605;SDS011;58173;52.500;5.494;2024-03-17T01:50:35;8.60;;;2.15;;
70605;SDS011;58173;52.500;5.494;2024-03-17T01:53:02;8.65;;;2.20;;
70605;SDS011;58173;52.500;5.494;2024-03-17T01:55:30;6.82;;;2.17;;
70605;SDS011;58173;52.500;5.494;2024-03-17T01:57:57;6.63;;;2.20;;
70605;SDS011;58173;52.500;5.494;2024-03-17T02:00:23;7.45;;;2.22;;
70605;SDS011;58173;52.500;5.494;2024-03-17T02:02:50;6.88;;;1.92;;
70605;SDS011;58173;52.500;5.494;2024-03-17T02:05:16;8.85;;;2.05;;
70605;SDS011;58173;52.500;5.494;2024-03-17T02:07:43;9.48;;;2.38;;
70605;SDS011;58173;52.500;5.494;2024-03-17T02:10:09;4.35;;;1.73;;
70605;SDS011;58173;52.500;5.494;2024-03-17T02:12:35;6.43;;;2.03;;
70605;SDS011;58173;52.500;5.494;2024-03-17T02:15:02;5.47;;;1.63;;
70605;SDS011;58173;52.500;5.494;2024-03-17T02:17:31;7.30;;;2.03;;
70605;SDS011;58173;52.500;5.494;2024-03-17T02:19:57;8.23;;;1.95;;
70605;SDS011;58173;52.500;5.494;2024-03-17T02:22:23;10.38;;;1.90;;
70605;SDS011;58173;52.500;5.494;2024-03-17T02:24:50;8.70;;;2.25;;
70605;SDS011;58173;52.500;5.494;2024-03-17T02:27:16;8.65;;;2.13;;
70605;SDS011;58173;52.500;5.494;2024-03-17T02:29:42;7.75;;;1.77;;
70605;SDS011;58173;52.500;5.494;2024-03-17T02:32:09;9.98;;;2.13;;
70605;SDS011;58173;52.500;5.494;2024-03-17T02:34:37;7.97;;;2.17;;
70605;SDS011;58173;52.500;5.494;2024-03-17T02:37:05;8.23;;;2.15;;
70605;SDS011;58173;52.500;5.494;2024-03-17T02:39:33;6.50;;;1.70;;
70605;SDS011;58173;52.500;5.494;2024-03-17T02:42:03;5.40;;;1.88;;
70605;SDS011;58173;52.500;5.494;2024-03-17T02:44:30;5.35;;;1.40;;
70605;SDS011;58173;52.500;5.494;2024-03-17T02:47:00;6.60;;;1.55;;
70605;SDS011;58173;52.500;5.494;2024-03-17T02:49:29;3.92;;;1.25;;
70605;SDS011;58173;52.500;5.494;2024-03-17T02:52:07;7.50;;;2.00;;
70605;SDS011;58173;52.500;5.494;2024-03-17T02:54:35;7.07;;;1.83;;
70605;SDS011;58173;52.500;5.494;2024-03-17T02:57:01;9.57;;;1.80;;
70605;SDS011;58173;52.500;5.494;2024-03-17T02:59:27;5.57;;;1.48;;
70605;SDS011;58173;52.500;5.494;2024-03-17T03:01:54;5.25;;;1.40;;
70605;SDS011;58173;52.500;5.494;2024-03-17T03:04:20;5.60;;;1.30;;
70605;SDS011;58173;52.500;5.494;2024-03-17T03:06:46;3.90;;;1.33;;
70605;SDS011;58173;52.500;5.494;2024-03-17T03:09:13;5.65;;;1.70;;
70605;SDS011;58173;52.500;5.494;2024-03-17T03:11:45;5.90;;;1.70;;
70605;SDS011;58173;52.500;5.494;2024-03-17T03:14:12;7.28;;;1.70;;
70605;SDS011;58173;52.500;5.494;2024-03-17T03:16:38;10.18;;;1.83;;
70605;SDS011;58173;52.500;5.494;2024-03-17T03:19:04;8.13;;;1.67;;
70605;SDS011;58173;52.500;5.494;2024-03-17T03:21:31;5.30;;;1.45;;
70605;SDS011;58173;52.500;5.494;2024-03-17T03:23:57;6.00;;;1.98;;
70605;SDS011;58173;52.500;5.494;2024-03-17T03:26:23;9.05;;;1.73;;
70605;SDS011;58173;52.500;5.494;2024-03-17T03:28:50;5.22;;;2.00;;
70605;SDS011;58173;52.500;5.494;2024-03-17T03:31:16;6.13;;;1.75;;
70605;SDS011;58173;52.500;5.494;2024-03-17T03:33:43;5.88;;;1.75;;
70605;SDS011;58173;52.500;5.494;2024-03-17T03:36:13;8.32;;;1.80;;
70605;SDS011;58173;52.500;5.494;2024-03-17T03:38:40;7.47;;;1.55;;
70605;SDS011;58173;52.500;5.494;2024-03-17T03:41:14;7.70;;;2.05;;
70605;SDS011;58173;52.500;5.494;2024-03-17T03:43:40;6.15;;;1.95;;
70605;SDS011;58173;52.500;5.494;2024-03-17T03:46:07;7.95;;;1.85;;
70605;SDS011;58173;52.500;5.494;2024-03-17T03:48:34;7.45;;;1.83;;
70605;SDS011;58173;52.500;5.494;2024-03-17T03:51:04;8.13;;;1.85;;
70605;SDS011;58173;52.500;5.494;2024-03-17T03:53:35;8.50;;;1.92;;
70605;SDS011;58173;52.500;5.494;2024-03-17T03:56:05;9.30;;;2.22;;
70605;SDS011;58173;52.500;5.494;2024-03-17T03:58:32;10.82;;;2.10;;
70605;SDS011;58173;52.500;5.494;2024-03-17T04:00:59;6.22;;;2.00;;
70605;SDS011;58173;52.500;5.494;2024-03-17T04:03:25;6.80;;;1.98;;
70605;SDS011;58173;52.500;5.494;2024-03-17T04:06:00;12.50;;;2.03;;
70605;SDS011;58173;52.500;5.494;2024-03-17T04:08:26;8.05;;;2.00;;
70605;SDS011;58173;52.500;5.494;2024-03-17T04:10:52;6.15;;;2.00;;
70605;SDS011;58173;52.500;5.494;2024-03-17T04:13:19;9.13;;;2.25;;
70605;SDS011;58173;52.500;5.494;2024-03-17T04:15:45;6.22;;;2.00;;
70605;SDS011;58173;52.500;5.494;2024-03-17T04:18:11;10.93;;;2.33;;
70605;SDS011;58173;52.500;5.494;2024-03-17T04:20:39;6.78;;;2.10;;
70605;SDS011;58173;52.500;5.494;2024-03-17T04:23:05;13.68;;;2.70;;
70605;SDS011;58173;52.500;5.494;2024-03-17T04:25:32;8.75;;;2.00;;
70605;SDS011;58173;52.500;5.494;2024-03-17T04:27:58;9.20;;;2.47;;
70605;SDS011;58173;52.500;5.494;2024-03-17T04:30:24;8.02;;;2.40;;
70605;SDS011;58173;52.500;5.494;2024-03-17T04:32:50;9.00;;;2.40;;
70605;SDS011;58173;52.500;5.494;2024-03-17T04:35:17;9.05;;;2.55;;
70605;SDS011;58173;52.500;5.494;2024-03-17T04:37:43;8.15;;;2.40;;
70605;SDS011;58173;52.500;5.494;2024-03-17T04:40:10;7.70;;;2.50;;
70605;SDS011;58173;52.500;5.494;2024-03-17T04:42:37;7.28;;;2.50;;
70605;SDS011;58173;52.500;5.494;2024-03-17T04:45:05;9.50;;;2.88;;
70605;SDS011;58173;52.500;5.494;2024-03-17T04:47:32;10.30;;;2.95;;
70605;SDS011;58173;52.500;5.494;2024-03-17T04:49:58;9.60;;;2.67;;
70605;SDS011;58173;52.500;5.494;2024-03-17T04:52:24;8.95;;;2.80;;
70605;SDS011;58173;52.500;5.494;2024-03-17T04:54:50;9.20;;;3.03;;
70605;SDS011;58173;52.500;5.494;2024-03-17T04:57:17;9.07;;;2.92;;
70605;SDS011;58173;52.500;5.494;2024-03-17T04:59:43;9.77;;;3.15;;
70605;SDS011;58173;52.500;5.494;2024-03-17T05:02:09;9.07;;;3.33;;
70605;SDS011;58173;52.500;5.494;2024-03-17T05:04:36;8.45;;;2.90;;
70605;SDS011;58173;52.500;5.494;2024-03-17T05:07:02;6.55;;;2.63;;
70605;SDS011;58173;52.500;5.494;2024-03-17T05:09:28;9.63;;;3.00;;
70605;SDS011;58173;52.500;5.494;2024-03-17T05:11:54;9.68;;;3.00;;
70605;SDS011;58173;52.500;5.494;2024-03-17T05:14:21;11.10;;;3.17;;
70605;SDS011;58173;52.500;5.494;2024-03-17T05:16:50;9.68;;;3.33;;
70605;SDS011;58173;52.500;5.494;2024-03-17T05:19:17;8.13;;;2.88;;
70605;SDS011;58173;52.500;5.494;2024-03-17T05:21:44;10.77;;;3.33;;
70605;SDS011;58173;52.500;5.494;2024-03-17T05:24:10;10.20;;;3.10;;
70605;SDS011;58173;52.500;5.494;2024-03-17T05:26:39;11.00;;;3.75;;
70605;SDS011;58173;52.500;5.494;2024-03-17T05:29:07;8.77;;;3.28;;
70605;SDS011;58173;52.500;5.494;2024-03-17T05:31:34;11.18;;;3.70;;
70605;SDS011;58173;52.500;5.494;2024-03-17T05:34:00;10.68;;;3.72;;
70605;SDS011;58173;52.500;5.494;2024-03-17T05:36:26;12.18;;;3.63;;
70605;SDS011;58173;52.500;5.494;2024-03-17T05:38:57;9.43;;;3.60;;
70605;SDS011;58173;52.500;5.494;2024-03-17T05:41:24;12.57;;;4.00;;
70605;SDS011;58173;52.500;5.494;2024-03-17T05:43:51;11.57;;;4.10;;
70605;SDS011;58173;52.500;5.494;2024-03-17T05:46:17;12.65;;;3.65;;
70605;SDS011;58173;52.500;5.494;2024-03-17T05:48:44;11.63;;;4.25;;
70605;SDS011;58173;52.500;5.494;2024-03-17T05:51:10;10.80;;;3.97;;
70605;SDS011;58173;52.500;5.494;2024-03-17T05:53:38;10.23;;;3.92;;
70605;SDS011;58173;52.500;5.494;2024-03-17T05:56:09;9.50;;;3.67;;
70605;SDS011;58173;52.500;5.494;2024-03-17T05:58:41;10.68;;;3.72;;
70605;SDS011;58173;52.500;5.494;2024-03-17T06:01:07;13.70;;;4.15;;
70605;SDS011;58173;52.500;5.494;2024-03-17T06:03:34;9.30;;;3.83;;
70605;SDS011;58173;52.500;5.494;2024-03-17T06:06:03;9.35;;;3.70;;
70605;SDS011;58173;52.500;5.494;2024-03-17T06:08:32;9.90;;;3.45;;
70605;SDS011;58173;52.500;5.494;2024-03-17T06:10:59;14.35;;;3.90;;
70605;SDS011;58173;52.500;5.494;2024-03-17T06:13:28;12.68;;;4.28;;
70605;SDS011;58173;52.500;5.494;2024-03-17T06:15:55;10.85;;;4.32;;
70605;SDS011;58173;52.500;5.494;2024-03-17T06:18:27;13.27;;;4.20;;
70605;SDS011;58173;52.500;5.494;2024-03-17T06:20:54;13.32;;;4.55;;
70605;SDS011;58173;52.500;5.494;2024-03-17T06:23:23;11.18;;;4.18;;
70605;SDS011;58173;52.500;5.494;2024-03-17T06:25:52;11.60;;;4.53;;
70605;SDS011;58173;52.500;5.494;2024-03-17T06:28:20;13.50;;;4.30;;
70605;SDS011;58173;52.500;5.494;2024-03-17T06:30:54;11.90;;;4.57;;
70605;SDS011;58173;52.500;5.494;2024-03-17T06:33:21;12.85;;;4.35;;
70605;SDS011;58173;52.500;5.494;2024-03-17T06:35:47;12.32;;;4.32;;
70605;SDS011;58173;52.500;5.494;2024-03-17T06:38:14;11.60;;;3.95;;
70605;SDS011;58173;52.500;5.494;2024-03-17T06:40:40;14.38;;;4.53;;
70605;SDS011;58173;52.500;5.494;2024-03-17T06:43:07;12.32;;;4.78;;
70605;SDS011;58173;52.500;5.494;2024-03-17T06:45:33;14.98;;;5.30;;
70605;SDS011;58173;52.500;5.494;2024-03-17T06:48:00;14.18;;;4.65;;
70605;SDS011;58173;52.500;5.494;2024-03-17T06:50:26;14.15;;;4.63;;
70605;SDS011;58173;52.500;5.494;2024-03-17T06:52:52;14.43;;;4.85;;
70605;SDS011;58173;52.500;5.494;2024-03-17T06:55:18;10.73;;;4.45;;
70605;SDS011;58173;52.500;5.494;2024-03-17T06:57:46;13.10;;;4.80;;
70605;SDS011;58173;52.500;5.494;2024-03-17T07:00:13;11.10;;;4.78;;
70605;SDS011;58173;52.500;5.494;2024-03-17T07:02:48;11.93;;;4.82;;
70605;SDS011;58173;52.500;5.494;2024-03-17T07:05:15;13.95;;;5.53;;
70605;SDS011;58173;52.500;5.494;2024-03-17T07:07:44;12.93;;;4.72;;
70605;SDS011;58173;52.500;5.494;2024-03-17T07:10:11;15.40;;;4.65;;
70605;SDS011;58173;52.500;5.494;2024-03-17T07:12:41;12.60;;;4.90;;
70605;SDS011;58173;52.500;5.494;2024-03-17T07:15:07;14.30;;;4.65;;
70605;SDS011;58173;52.500;5.494;2024-03-17T07:17:34;14.43;;;5.03;;
70605;SDS011;58173;52.500;5.494;2024-03-17T07:20:01;15.68;;;5.38;;
70605;SDS011;58173;52.500;5.494;2024-03-17T07:22:28;13.85;;;5.45;;
70605;SDS011;58173;52.500;5.494;2024-03-17T07:24:55;12.48;;;4.90;;
70605;SDS011;58173;52.500;5.494;2024-03-17T07:27:26;13.30;;;5.45;;
70605;SDS011;58173;52.500;5.494;2024-03-17T07:29:52;10.90;;;4.88;;
70605;SDS011;58173;52.500;5.494;2024-03-17T07:32:18;12.05;;;5.05;;
70605;SDS011;58173;52.500;5.494;2024-03-17T07:34:45;12.18;;;5.18;;
70605;SDS011;58173;52.500;5.494;2024-03-17T07:37:11;12.85;;;5.20;;
70605;SDS011;58173;52.500;5.494;2024-03-17T07:39:37;12.30;;;4.93;;
70605;SDS011;58173;52.500;5.494;2024-03-17T07:42:04;11.07;;;4.90;;
70605;SDS011;58173;52.500;5.494;2024-03-17T07:44:30;13.70;;;5.05;;
70605;SDS011;58173;52.500;5.494;2024-03-17T07:47:03;10.95;;;4.85;;
70605;SDS011;58173;52.500;5.494;2024-03-17T07:49:29;12.02;;;5.25;;
70605;SDS011;58173;52.500;5.494;2024-03-17T07:51:55;12.05;;;5.57;;
70605;SDS011;58173;52.500;5.494;2024-03-17T07:54:24;14.32;;;5.05;;
70605;SDS011;58173;52.500;5.494;2024-03-17T07:56:50;14.68;;;4.82;;
70605;SDS011;58173;52.500;5.494;2024-03-17T07:59:16;13.70;;;5.53;;
70605;SDS011;58173;52.500;5.494;2024-03-17T08:01:43;14.38;;;4.97;;
70605;SDS011;58173;52.500;5.494;2024-03-17T08:04:10;10.85;;;4.93;;
70605;SDS011;58173;52.500;5.494;2024-03-17T08:06:40;16.25;;;5.75;;
70605;SDS011;58173;52.500;5.494;2024-03-17T08:09:07;13.70;;;5.28;;
70605;SDS011;58173;52.500;5.494;2024-03-17T08:11:33;12.80;;;5.55;;
70605;SDS011;58173;52.500;5.494;2024-03-17T08:14:00;13.90;;;5.65;;
70605;SDS011;58173;52.500;5.494;2024-03-17T08:16:27;13.25;;;5.68;;
70605;SDS011;58173;52.500;5.494;2024-03-17T08:18:56;12.98;;;6.05;;
70605;SDS011;58173;52.500;5.494;2024-03-17T08:21:23;12.55;;;5.72;;
70605;SDS011;58173;52.500;5.494;2024-03-17T08:23:49;12.20;;;5.32;;
70605;SDS011;58173;52.500;5.494;2024-03-17T08:26:16;14.25;;;6.20;;
70605;SDS011;58173;52.500;5.494;2024-03-17T08:28:42;14.63;;;6.03;;
70605;SDS011;58173;52.500;5.494;2024-03-17T08:31:08;13.63;;;6.10;;
70605;SDS011;58173;52.500;5.494;2024-03-17T08:33:35;13.65;;;5.15;;
70605;SDS011;58173;52.500;5.494;2024-03-17T08:36:05;16.00;;;6.63;;
70605;SDS011;58173;52.500;5.494;2024-03-17T08:38:33;12.38;;;5.60;;
70605;SDS011;58173;52.500;5.494;2024-03-17T08:41:06;12.35;;;5.25;;
70605;SDS011;58173;52.500;5.494;2024-03-17T08:43:33;12.55;;;5.65;;
70605;SDS011;58173;52.500;5.494;2024-03-17T08:46:03;12.85;;;5.60;;
70605;SDS011;58173;52.500;5.494;2024-03-17T08:48:35;15.45;;;5.47;;
70605;SDS011;58173;52.500;5.494;2024-03-17T08:51:02;12.27;;;5.13;;
70605;SDS011;58173;52.500;5.494;2024-03-17T08:53:29;11.30;;;5.57;;
70605;SDS011;58173;52.500;5.494;2024-03-17T08:55:56;12.23;;;5.05;;
70605;SDS011;58173;52.500;5.494;2024-03-17T08:58:23;11.20;;;4.88;;
70605;SDS011;58173;52.500;5.494;2024-03-17T09:00:49;12.57;;;5.03;;
70605;SDS011;58173;52.500;5.494;2024-03-17T09:03:16;13.13;;;4.82;;
70605;SDS011;58173;52.500;5.494;2024-03-17T09:05:43;11.75;;;4.70;;
70605;SDS011;58173;52.500;5.494;2024-03-17T09:08:20;11.07;;;5.13;;
70605;SDS011;58173;52.500;5.494;2024-03-17T09:10:47;12.27;;;5.05;;
70605;SDS011;58173;52.500;5.494;2024-03-17T09:13:15;11.80;;;5.15;;
70605;SDS011;58173;52.500;5.494;2024-03-17T09:15:49;11.70;;;5.30;;
70605;SDS011;58173;52.500;5.494;2024-03-17T09:18:15;12.05;;;5.00;;
70605;SDS011;58173;52.500;5.494;2024-03-17T09:20:42;13.00;;;5.32;;
70605;SDS011;58173;52.500;5.494;2024-03-17T09:23:08;12.20;;;4.93;;
70605;SDS011;58173;52.500;5.494;2024-03-17T09:25:34;12.48;;;4.90;;
70605;SDS011;58173;52.500;5.494;2024-03-17T09:28:00;11.02;;;5.10;;
70605;SDS011;58173;52.500;5.494;2024-03-17T09:30:27;12.88;;;4.95;;
70605;SDS011;58173;52.500;5.494;2024-03-17T09:32:53;11.93;;;5.38;;
70605;SDS011;58173;52.500;5.494;2024-03-17T09:35:19;12.50;;;5.30;;
70605;SDS011;58173;52.500;5.494;2024-03-17T09:37:45;11.30;;;5.20;;
70605;SDS011;58173;52.500;5.494;2024-03-17T09:40:15;11.27;;;4.40;;
70605;SDS011;58173;52.500;5.494;2024-03-17T09:42:41;10.45;;;4.57;;
70605;SDS011;58173;52.500;5.494;2024-03-17T09:45:09;6.68;;;2.60;;
70605;SDS011;58173;52.500;5.494;2024-03-17T09:47:36;10.75;;;4.13;;
70605;SDS011;58173;52.500;5.494;2024-03-17T09:50:02;11.80;;;4.63;;
70605;SDS011;58173;52.500;5.494;2024-03-17T09:52:30;9.35;;;3.97;;
70605;SDS011;58173;52.500;5.494;2024-03-17T09:55:01;9.95;;;4.10;;
70605;SDS011;58173;52.500;5.494;2024-03-17T09:57:27;9.43;;;4.53;;
70605;SDS011;58173;52.500;5.494;2024-03-17T09:59:54;9.23;;;4.18;;
70605;SDS011;58173;52.500;5.494;2024-03-17T10:02:21;12.23;;;4.57;;
70605;SDS011;58173;52.500;5.494;2024-03-17T10:04:47;8.38;;;3.90;;
70605;SDS011;58173;52.500;5.494;2024-03-17T10:07:14;10.35;;;4.15;;
70605;SDS011;58173;52.500;5.494;2024-03-17T10:09:43;10.27;;;4.15;;
70605;SDS011;58173;52.500;5.494;2024-03-17T10:12:28;8.20;;;3.67;;
70605;SDS011;58173;52.500;5.494;2024-03-17T10:14:59;9.88;;;3.40;;
70605;SDS011;58173;52.500;5.494;2024-03-17T10:17:32;9.52;;;3.45;;
70605;SDS011;58173;52.500;5.494;2024-03-17T10:20:19;7.75;;;3.28;;
70605;SDS011;58173;52.500;5.494;2024-03-17T10:23:04;9.75;;;3.58;;
70605;SDS011;58173;52.500;5.494;2024-03-17T10:25:33;8.57;;;3.33;;
70605;SDS011;58173;52.500;5.494;2024-03-17T10:28:01;8.18;;;3.80;;
70605;SDS011;58173;52.500;5.494;2024-03-17T10:30:28;8.48;;;3.28;;
70605;SDS011;58173;52.500;5.494;2024-03-17T10:32:55;8.68;;;3.65;;
70605;SDS011;58173;52.500;5.494;2024-03-17T10:35:26;9.05;;;3.85;;
70605;SDS011;58173;52.500;5.494;2024-03-17T10:37:53;9.90;;;3.88;;
70605;SDS011;58173;52.500;5.494;2024-03-17T10:40:20;9.40;;;3.45;;
70605;SDS011;58173;52.500;5.494;2024-03-17T10:42:46;9.88;;;3.25;;
70605;SDS011;58173;52.500;5.494;2024-03-17T10:45:14;10.15;;;4.07;;
70605;SDS011;58173;52.500;5.494;2024-03-17T10:47:41;10.10;;;4.10;;
70605;SDS011;58173;52.500;5.494;2024-03-17T10:50:12;10.05;;;3.45;;
70605;SDS011;58173;52.500;5.494;2024-03-17T10:52:44;10.90;;;4.50;;
70605;SDS011;58173;52.500;5.494;2024-03-17T10:55:20;8.10;;;3.35;;
70605;SDS011;58173;52.500;5.494;2024-03-17T10:57:47;7.45;;;3.33;;
70605;SDS011;58173;52.500;5.494;2024-03-17T11:00:19;9.00;;;3.53;;
70605;SDS011;58173;52.500;5.494;2024-03-17T11:02:48;8.10;;;3.38;;
70605;SDS011;58173;52.500;5.494;2024-03-17T11:05:15;7.15;;;2.67;;
70605;SDS011;58173;52.500;5.494;2024-03-17T11:07:43;9.50;;;3.30;;
70605;SDS011;58173;52.500;5.494;2024-03-17T11:10:22;9.45;;;3.75;;
70605;SDS011;58173;52.500;5.494;2024-03-17T11:12:59;8.75;;;3.92;;
70605;SDS011;58173;52.500;5.494;2024-03-17T11:20:35;11.88;;;5.13;;
70605;SDS011;58173;52.500;5.494;2024-03-17T11:23:05;10.20;;;4.95;;
70605;SDS011;58173;52.500;5.494;2024-03-17T11:28:00;11.27;;;4.78;;
70605;SDS011;58173;52.500;5.494;2024-03-17T11:33:02;14.15;;;4.72;;
70605;SDS011;58173;52.500;5.494;2024-03-17T11:35:29;11.65;;;5.03;;
70605;SDS011;58173;52.500;5.494;2024-03-17T11:37:55;11.60;;;5.40;;
70605;SDS011;58173;52.500;5.494;2024-03-17T11:40:23;10.15;;;4.45;;
70605;SDS011;58173;52.500;5.494;2024-03-17T11:43:02;11.98;;;4.78;;
70605;SDS011;58173;52.500;5.494;2024-03-17T11:45:30;11.25;;;5.65;;
70605;SDS011;58173;52.500;5.494;2024-03-17T11:47:56;12.18;;;5.03;;
70605;SDS011;58173;52.500;5.494;2024-03-17T11:50:23;10.07;;;4.90;;
70605;SDS011;58173;52.500;5.494;2024-03-17T11:52:59;11.90;;;4.90;;
70605;SDS011;58173;52.500;5.494;2024-03-17T11:55:25;10.40;;;5.25;;
70605;SDS011;58173;52.500;5.494;2024-03-17T11:57:55;10.38;;;4.78;;
70605;SDS011;58173;52.500;5.494;2024-03-17T12:00:22;9.27;;;4.35;;
70605;SDS011;58173;52.500;5.494;2024-03-17T12:02:49;10.10;;;4.68;;
70605;SDS011;58173;52.500;5.494;2024-03-17T12:05:16;9.00;;;3.75;;
70605;SDS011;58173;52.500;5.494;2024-03-17T12:07:43;11.02;;;4.75;;
70605;SDS011;58173;52.500;5.494;2024-03-17T12:10:10;10.00;;;4.55;;
70605;SDS011;58173;52.500;5.494;2024-03-17T12:12:39;12.02;;;4.20;;
70605;SDS011;58173;52.500;5.494;2024-03-17T12:15:16;10.07;;;4.60;;
70605;SDS011;58173;52.500;5.494;2024-03-17T12:17:43;11.70;;;4.63;;
70605;SDS011;58173;52.500;5.494;2024-03-17T12:20:19;10.70;;;4.53;;
70605;SDS011;58173;52.500;5.494;2024-03-17T12:22:47;12.18;;;5.03;;
70605;SDS011;58173;52.500;5.494;2024-03-17T12:25:17;13.73;;;4.80;;
70605;SDS011;58173;52.500;5.494;2024-03-17T12:27:44;9.88;;;4.05;;
70605;SDS011;58173;52.500;5.494;2024-03-17T12:30:11;11.52;;;4.90;;
70605;SDS011;58173;52.500;5.494;2024-03-17T12:32:38;11.25;;;5.60;;
70605;SDS011;58173;52.500;5.494;2024-03-17T12:35:09;9.23;;;4.10;;
70605;SDS011;58173;52.500;5.494;2024-03-17T12:37:38;10.57;;;4.93;;
70605;SDS011;58173;52.500;5.494;2024-03-17T12:40:06;12.95;;;4.72;;
70605;SDS011;58173;52.500;5.494;2024-03-17T12:42:46;13.27;;;5.35;;
70605;SDS011;58173;52.500;5.494;2024-03-17T12:45:13;11.27;;;4.45;;
70605;SDS011;58173;52.500;5.494;2024-03-17T12:47:40;8.32;;;4.25;;
70605;SDS011;58173;52.500;5.494;2024-03-17T12:50:11;12.10;;;5.38;;
70605;SDS011;58173;52.500;5.494;2024-03-17T12:52:40;12.18;;;5.88;;
70605;SDS011;58173;52.500;5.494;2024-03-17T12:55:09;13.18;;;5.07;;
70605;SDS011;58173;52.500;5.494;2024-03-17T13:00:46;12.15;;;5.40;;
70605;SDS011;58173;52.500;5.494;2024-03-17T13:03:24;9.05;;;4.80;;
70605;SDS011;58173;52.500;5.494;2024-03-17T13:05:50;12.57;;;5.82;;
70605;SDS011;58173;52.500;5.494;2024-03-17T13:08:17;13.15;;;5.60;;
70605;SDS011;58173;52.500;5.494;2024-03-17T13:10:43;11.00;;;4.88;;
70605;SDS011;58173;52.500;5.494;2024-03-17T13:13:10;10.88;;;5.25;;
70605;SDS011;58173;52.500;5.494;2024-03-17T13:15:41;11.02;;;5.05;;
70605;SDS011;58173;52.500;5.494;2024-03-17T13:18:07;12.88;;;5.10;;
70605;SDS011;58173;52.500;5.494;2024-03-17T13:20:34;10.10;;;4.30;;
70605;SDS011;58173;52.500;5.494;2024-03-17T13:23:00;10.15;;;4.53;;
70605;SDS011;58173;52.500;5.494;2024-03-17T13:25:27;9.75;;;3.95;;
70605;SDS011;58173;52.500;5.494;2024-03-17T13:28:05;10.48;;;5.03;;
70605;SDS011;58173;52.500;5.494;2024-03-17T13:30:35;13.15;;;5.43;;
70605;SDS011;58173;52.500;5.494;2024-03-17T13:33:02;11.80;;;4.80;;
70605;SDS011;58173;52.500;5.494;2024-03-17T13:35:33;12.35;;;4.93;;
70605;SDS011;58173;52.500;5.494;2024-03-17T13:38:00;9.40;;;4.82;;
70605;SDS011;58173;52.500;5.494;2024-03-17T13:40:28;10.55;;;4.45;;
70605;SDS011;58173;52.500;5.494;2024-03-17T13:42:55;9.65;;;4.22;;
70605;SDS011;58173;52.500;5.494;2024-03-17T13:45:22;9.68;;;4.70;;
70605;SDS011;58173;52.500;5.494;2024-03-17T13:47:54;8.50;;;4.03;;
70605;SDS011;58173;52.500;5.494;2024-03-17T13:50:21;11.43;;;4.85;;
70605;SDS011;58173;52.500;5.494;2024-03-17T13:52:49;10.23;;;3.90;;
70605;SDS011;58173;52.500;5.494;2024-03-17T13:55:16;10.55;;;4.57;;
70605;SDS011;58173;52.500;5.494;2024-03-17T13:57:50;9.50;;;4.30;;
70605;SDS011;58173;52.500;5.494;2024-03-17T14:00:20;9.63;;;3.63;;
70605;SDS011;58173;52.500;5.494;2024-03-17T14:02:47;9.77;;;3.75;;
70605;SDS011;58173;52.500;5.494;2024-03-17T14:05:16;9.35;;;3.58;;
70605;SDS011;58173;52.500;5.494;2024-03-17T14:07:43;10.50;;;3.50;;
70605;SDS011;58173;52.500;5.494;2024-03-17T14:10:10;10.05;;;3.83;;
70605;SDS011;58173;52.500;5.494;2024-03-17T14:12:36;8.90;;;3.80;;
70605;SDS011;58173;52.500;5.494;2024-03-17T14:15:03;9.80;;;4.10;;
70605;SDS011;58173;52.500;5.494;2024-03-17T14:17:30;11.13;;;3.90;;
70605;SDS011;58173;52.500;5.494;2024-03-17T14:19:58;7.40;;;3.53;;
70605;SDS011;58173;52.500;5.494;2024-03-17T14:22:24;7.75;;;3.30;;
70605;SDS011;58173;52.500;5.494;2024-03-17T14:24:51;8.80;;;3.50;;
70605;SDS011;58173;52.500;5.494;2024-03-17T14:27:17;9.88;;;3.97;;
70605;SDS011;58173;52.500;5.494;2024-03-17T14:29:43;8.65;;;4.03;;
70605;SDS011;58173;52.500;5.494;2024-03-17T14:32:09;11.45;;;4.55;;
70605;SDS011;58173;52.500;5.494;2024-03-17T14:34:36;9.88;;;4.05;;
70605;SDS011;58173;52.500;5.494;2024-03-17T14:37:03;10.52;;;4.18;;
70605;SDS011;58173;52.500;5.494;2024-03-17T14:39:30;10.73;;;4.82;;
70605;SDS011;58173;52.500;5.494;2024-03-17T14:41:56;9.68;;;3.95;;
70605;SDS011;58173;52.500;5.494;2024-03-17T14:44:23;12.00;;;4.85;;
70605;SDS011;58173;52.500;5.494;2024-03-17T14:46:49;9.85;;;4.40;;
70605;SDS011;58173;52.500;5.494;2024-03-17T14:49:16;11.60;;;4.32;;
70605;SDS011;58173;52.500;5.494;2024-03-17T14:51:43;10.88;;;4.10;;
70605;SDS011;58173;52.500;5.494;2024-03-17T14:54:09;12.65;;;4.45;;
70605;SDS011;58173;52.500;5.494;2024-03-17T14:56:35;10.68;;;4.93;;